»·PEaware :: N271DC KMHV-KPMD

N271DC :: KMHV-KPMD

FLIGHT INFORMATION

Flight Status: Arrived
Operator: Privately registered:
United States
More flights under this callsign
Pilot: Jordie L. (19392)
Aircraft: CESSNA 182 SKYLANE
(C182)
More flights by this aircraft type
Origin: KMHV Mojave
United States
Destination: KPMD Palmdale AF Plant 42
United States
More flights between these airports :: More routes between these airports
Route: PRACTICE APPROACHES AT PMD
File this flight plan on PilotEdge
Remarks:
Altitude:
(Current/Filed)
0ft
Speed:
(Current/Filed)
0kts
Departed: 07-Feb-21 02:25 PM
Arrived: 07-Feb-21 02:57 PM
Distance/Time
Traveled:
25nm/0:31
Distance/Time
To Go:
Arrived

Flight Plot

Page will automatically refresh every two minutes.

Flight plan parsing failed; only flown route is shown


Map Options




Map Legend


Flown Route
Filed Route
Departure Airport
Arrival Airport
Navaid (VOR, NDB)
Fix

Horizontal Profiles

Position Reports

Time Latitude Longitude Heading Altitude Ground
Speed
07-Feb-21 14:11 35.057283 -118.164722 69 2776ft 0kts
07-Feb-21 14:12 35.057283 -118.164722 69 2776ft 0kts
07-Feb-21 14:13 35.057283 -118.164722 69 2776ft 0kts
07-Feb-21 14:14 35.057283 -118.164722 69 2776ft 0kts
07-Feb-21 14:15 35.057283 -118.164722 69 2776ft 0kts
07-Feb-21 14:16 35.057283 -118.164722 69 2776ft 0kts
07-Feb-21 14:17 35.057780 -118.164597 325 2776ft 4kts
07-Feb-21 14:18 35.058242 -118.165576 89 2778ft 0kts
07-Feb-21 14:19 35.058242 -118.165572 89 2778ft 0kts
07-Feb-21 14:20 35.058241 -118.165527 92 2778ft 1kts
07-Feb-21 14:21 35.058411 -118.165023 318 2778ft 0kts
07-Feb-21 14:22 35.058411 -118.165023 318 2778ft 0kts
07-Feb-21 14:23 35.059001 -118.165654 334 2780ft 8kts
07-Feb-21 14:24 35.056958 -118.144805 100 3343ft 101kts
07-Feb-21 14:25 35.056358 -118.111286 84 4726ft 99kts
07-Feb-21 14:26 35.060061 -118.077166 81 6035ft 103kts
07-Feb-21 14:27 35.062404 -118.042024 85 7346ft 106kts
07-Feb-21 14:28 35.063245 -118.005735 81 8636ft 109kts
07-Feb-21 14:29 35.040932 -117.998825 223 9589ft 116kts
07-Feb-21 14:30 35.016259 -118.037516 241 9469ft 163kts
07-Feb-21 14:31 34.994035 -118.085738 246 9504ft 161kts
07-Feb-21 14:32 34.969330 -118.131936 232 9507ft 163kts
07-Feb-21 14:33 34.945384 -118.178698 250 9476ft 162kts
07-Feb-21 14:34 34.931465 -118.231114 254 9469ft 163kts
07-Feb-21 14:35 34.916264 -118.283361 254 9455ft 164kts
07-Feb-21 14:36 34.902899 -118.336923 240 9378ft 172kts
07-Feb-21 14:37 34.867756 -118.377247 223 9337ft 176kts
07-Feb-21 14:38 34.842701 -118.426112 263 9303ft 170kts
07-Feb-21 14:39 34.839944 -118.482259 271 9261ft 166kts
07-Feb-21 14:40 34.819401 -118.533197 224 8961ft 176kts
07-Feb-21 14:41 34.779990 -118.569286 216 8362ft 177kts
07-Feb-21 14:42 34.736793 -118.593797 161 7744ft 171kts
07-Feb-21 14:43 34.720764 -118.549259 95 7378ft 161kts
07-Feb-21 14:44 34.704141 -118.499856 117 7109ft 159kts
07-Feb-21 14:45 34.683040 -118.455475 112 7198ft 147kts
07-Feb-21 14:46 34.666173 -118.409782 114 7183ft 150kts
07-Feb-21 14:47 34.643033 -118.366980 96 6741ft 154kts
07-Feb-21 14:48 34.646771 -118.317825 100 6201ft 154kts
07-Feb-21 14:49 34.623491 -118.278421 129 5471ft 135kts
07-Feb-21 14:50 34.621541 -118.241840 68 4573ft 93kts
07-Feb-21 14:51 34.626692 -118.215169 81 4946ft 80kts
07-Feb-21 14:52 34.626603 -118.184174 85 4353ft 90kts
07-Feb-21 14:53 34.629759 -118.155187 84 3425ft 82kts
07-Feb-21 14:54 34.629812 -118.127105 91 2928ft 77kts
07-Feb-21 14:55 34.631089 -118.103591 85 2527ft 43kts
07-Feb-21 14:56 34.632404 -118.097960 350 2517ft 0kts
07-Feb-21 14:57 34.630047 -118.140357 82 3149ft 86kts
07-Feb-21 14:58 34.630560 -118.113639 83 2612ft 77kts
07-Feb-21 14:59 34.631099 -118.103415 86 2527ft 42kts
07-Feb-21 15:00 34.632404 -118.097960 350 2517ft 0kts
07-Feb-21 15:01 34.637124 -118.097597 5 2511ft 20kts
07-Feb-21 15:02 34.638073 -118.099088 1 2512ft 0kts

Navigation Log

Ident Type
Flight plan parsing failed, navigation log unavailable